createdAt,value
2018-12-10T00:00:27.447Z,4.72
2018-12-10T00:03:03.603Z,4.67
2018-12-10T00:05:36.526Z,4.69
2018-12-10T00:08:09.495Z,4.84
2018-12-10T00:11:04.487Z,4.91
2018-12-10T00:13:41.056Z,4.97
2018-12-10T00:16:10.163Z,5.01
2018-12-10T00:18:46.423Z,5.04
2018-12-10T00:21:24.588Z,5.05
2018-12-10T00:24:02.199Z,5.00
2018-12-10T00:26:31.298Z,5.02
2018-12-10T00:29:34.250Z,4.92
2018-12-10T00:32:10.823Z,4.82
2018-12-10T00:34:43.590Z,4.77
2018-12-10T00:37:16.484Z,4.71
2018-12-10T00:39:53.390Z,4.75
2018-12-10T00:42:30.396Z,4.70
2018-12-10T00:44:59.569Z,4.83
2018-12-10T00:47:41.756Z,4.76
2018-12-10T00:50:23.559Z,4.72
2018-12-10T00:52:56.023Z,4.71
2018-12-10T00:55:36.281Z,4.75
2018-12-10T00:58:15.560Z,4.65
2018-12-10T01:00:53.163Z,4.58
2018-12-10T01:03:22.429Z,4.56
2018-12-10T01:05:55.343Z,4.49
2018-12-10T01:08:31.876Z,4.43
2018-12-10T01:11:09.975Z,4.52
2018-12-10T01:13:42.685Z,4.58
2018-12-10T01:16:22.061Z,4.65
2018-12-10T01:18:58.792Z,4.69
2018-12-10T01:21:33.919Z,4.65
2018-12-10T01:24:09.507Z,4.67
2018-12-10T01:26:42.595Z,4.63
2018-12-10T01:29:19.360Z,4.67
2018-12-10T01:31:56.466Z,4.63
2018-12-10T01:34:29.222Z,4.71
2018-12-10T01:37:03.480Z,4.66
2018-12-10T01:39:40.897Z,4.71
2018-12-10T01:42:20.707Z,4.82
2018-12-10T01:45:07.644Z,4.82
2018-12-10T01:47:44.057Z,4.92
2018-12-10T01:50:16.948Z,5.03
2018-12-10T01:52:53.993Z,5.10
2018-12-10T01:55:26.485Z,5.10
2018-12-10T01:58:03.456Z,5.00
2018-12-10T02:05:33.568Z,4.84
2018-12-10T02:08:06.516Z,4.75
2018-12-10T02:10:43.245Z,4.76
2018-12-10T02:13:16.186Z,4.68
2018-12-10T02:15:49.078Z,4.70
2018-12-10T02:18:20.342Z,4.58
2018-12-10T02:20:53.181Z,4.56
2018-12-10T02:23:24.232Z,4.55
2018-12-10T02:26:00.958Z,4.46
2018-12-10T02:28:38.899Z,4.61
2018-12-10T02:31:11.878Z,4.46
2018-12-10T02:33:48.671Z,4.42
2018-12-10T02:36:25.846Z,4.31
2018-12-10T02:38:58.660Z,4.33
2018-12-10T02:41:31.723Z,4.40
2018-12-10T02:44:02.611Z,4.43
2018-12-10T02:46:35.341Z,4.46
2018-12-10T02:49:08.181Z,4.57
2018-12-10T02:51:41.278Z,4.62
2018-12-10T02:54:18.254Z,4.59
2018-12-10T02:56:55.444Z,4.53
2018-12-10T02:59:28.414Z,4.48
2018-12-10T03:01:59.243Z,4.47
2018-12-10T03:07:01.672Z,4.31
2018-12-10T03:09:32.766Z,4.30
2018-12-10T03:12:09.606Z,4.29
2018-12-10T03:14:42.565Z,4.26
2018-12-10T03:17:19.531Z,4.25
2018-12-10T03:19:52.442Z,4.22
2018-12-10T03:22:24.645Z,4.20
2018-12-10T03:24:57.497Z,4.15
2018-12-10T03:27:40.042Z,4.31
2018-12-10T03:30:12.512Z,4.35
2018-12-10T03:32:45.586Z,4.41
2018-12-10T03:35:18.660Z,4.46
2018-12-10T03:37:51.372Z,4.47
2018-12-10T03:40:23.693Z,4.46
2018-12-10T03:42:54.823Z,4.42
2018-12-10T03:45:27.438Z,4.40
2018-12-10T03:48:00.520Z,4.48
2018-12-10T03:50:37.229Z,4.52
2018-12-10T03:53:10.318Z,4.45
2018-12-10T03:55:47.270Z,4.34
2018-12-10T03:58:23.947Z,4.28
2018-12-10T04:00:56.864Z,4.27
2018-12-10T04:03:37.256Z,4.16
2018-12-10T04:06:14.154Z,4.15
2018-12-10T04:11:14.412Z,4.17
2018-12-10T04:13:47.475Z,4.04
2018-12-10T04:16:20.326Z,4.15
2018-12-10T04:18:54.002Z,4.08
2018-12-10T04:21:30.336Z,4.14
2018-12-10T04:24:07.266Z,4.19
2018-12-10T04:26:44.303Z,4.17
2018-12-10T04:29:20.918Z,4.16
2018-12-10T04:31:57.211Z,4.01
2018-12-10T04:34:34.530Z,3.93
2018-12-10T04:37:11.456Z,3.99
2018-12-10T04:39:44.004Z,4.11
2018-12-10T04:42:17.108Z,4.20
2018-12-10T04:44:50.243Z,4.27
2018-12-10T04:47:23.299Z,4.42
2018-12-10T04:49:59.713Z,4.47
2018-12-10T04:52:32.715Z,4.40
2018-12-10T04:55:09.631Z,4.48
2018-12-10T04:57:42.509Z,4.50
2018-12-10T05:00:15.527Z,4.37
2018-12-10T05:02:48.499Z,4.18
2018-12-10T05:05:25.463Z,4.15
2018-12-10T05:08:05.388Z,4.09
2018-12-10T05:10:37.639Z,4.18
2018-12-10T05:13:10.547Z,4.06
2018-12-10T05:15:43.266Z,4.03
2018-12-10T05:18:20.272Z,4.06
2018-12-10T05:24:31.962Z,4.04
2018-12-10T05:27:04.526Z,4.08
2018-12-10T05:29:37.327Z,4.11
2018-12-10T05:32:10.434Z,4.28
2018-12-10T05:34:47.433Z,4.19
2018-12-10T05:37:24.315Z,4.18
2018-12-10T05:39:57.531Z,4.07
2018-12-10T05:42:30.424Z,4.02
2018-12-10T05:45:01.563Z,3.94
2018-12-10T05:47:34.435Z,3.97
2018-12-10T05:50:06.146Z,3.91
2018-12-10T05:52:39.163Z,3.90
2018-12-10T05:55:16.492Z,3.97
2018-12-10T05:57:53.291Z,3.96
2018-12-10T06:00:26.438Z,4.08
2018-12-10T06:03:03.283Z,4.12
2018-12-10T06:05:34.605Z,4.05
2018-12-10T06:08:06.951Z,4.11
2018-12-10T06:10:39.195Z,4.10
2018-12-10T06:13:16.147Z,4.16
2018-12-10T06:15:53.331Z,4.26
2018-12-10T06:18:30.053Z,4.22
2018-12-10T06:21:06.633Z,4.13
2018-12-10T06:23:39.475Z,4.07
2018-12-10T06:26:12.428Z,4.13
2018-12-10T06:28:49.562Z,3.91
2018-12-10T06:31:18.811Z,3.88
2018-12-10T06:33:55.243Z,3.76
2018-12-10T06:36:28.331Z,3.88
2018-12-10T06:39:04.534Z,3.93
2018-12-10T06:41:37.237Z,3.82
2018-12-10T06:44:10.100Z,3.94
2018-12-10T06:46:47.064Z,3.95
2018-12-10T06:49:23.896Z,3.91
2018-12-10T06:51:54.834Z,4.01
2018-12-10T06:54:27.818Z,3.97
2018-12-10T06:57:00.767Z,3.95
2018-12-10T06:59:31.748Z,3.89
2018-12-10T07:02:08.735Z,3.84
2018-12-10T07:04:46.066Z,3.87
2018-12-10T07:07:22.891Z,3.94
2018-12-10T07:09:59.603Z,4.06
2018-12-10T07:12:36.785Z,4.12
2018-12-10T07:15:13.335Z,4.23
2018-12-10T07:20:14.855Z,4.09
2018-12-10T07:22:45.575Z,4.10
2018-12-10T07:25:18.594Z,4.21
2018-12-10T07:27:51.551Z,4.21
2018-12-10T07:33:52.215Z,4.13
2018-12-10T07:36:29.058Z,4.14
2018-12-10T07:39:07.455Z,4.13
2018-12-10T07:41:36.595Z,4.09
2018-12-10T07:44:14.880Z,4.05
2018-12-10T07:46:45.357Z,4.05
2018-12-10T07:49:45.193Z,4.06
2018-12-10T07:52:14.566Z,4.19
2018-12-10T07:55:04.297Z,4.20
2018-12-10T07:57:41.065Z,4.19
2018-12-10T08:00:18.797Z,4.13
2018-12-10T08:02:55.913Z,4.11
2018-12-10T08:05:28.732Z,4.12
2018-12-10T08:08:02.012Z,4.16
2018-12-10T08:10:34.743Z,4.02
2018-12-10T08:13:12.027Z,4.00
2018-12-10T08:15:44.456Z,3.98
2018-12-10T08:18:16.732Z,3.95
2018-12-10T08:20:49.803Z,3.94
2018-12-10T08:23:27.289Z,4.00
2018-12-10T08:25:59.827Z,4.20
2018-12-10T08:28:37.042Z,4.37
2018-12-10T08:31:10.092Z,4.39
2018-12-10T08:33:42.871Z,4.37
2018-12-10T08:36:15.972Z,4.33
2018-12-10T08:38:53.005Z,4.28
2018-12-10T08:41:26.139Z,4.21
2018-12-10T08:43:59.147Z,4.30
2018-12-10T08:46:36.025Z,4.37
2018-12-10T08:49:09.146Z,4.50
2018-12-10T08:51:41.919Z,4.74
2018-12-10T08:54:15.122Z,4.80
2018-12-10T08:56:48.291Z,4.88
2018-12-10T08:59:20.635Z,4.92
2018-12-10T09:01:57.595Z,4.82
2018-12-10T09:04:34.042Z,4.72
2018-12-10T09:07:06.915Z,4.69
2018-12-10T09:09:40.180Z,4.52
2018-12-10T09:12:10.891Z,4.51
2018-12-10T09:14:47.808Z,4.47
2018-12-10T09:17:24.878Z,4.49
2018-12-10T09:20:01.875Z,4.60
2018-12-10T09:22:34.896Z,4.66
2018-12-10T09:35:10.042Z,4.75
2018-12-10T09:37:43.236Z,4.72
2018-12-10T09:40:16.320Z,4.72
2018-12-10T09:42:47.244Z,4.88
2018-12-10T09:45:20.342Z,4.98
2018-12-10T09:47:54.203Z,5.13
2018-12-10T09:50:27.006Z,5.23
2018-12-10T09:53:04.092Z,5.42
2018-12-10T09:55:36.596Z,5.45
2018-12-10T09:58:13.660Z,5.49
2018-12-10T10:00:46.576Z,5.71
2018-12-10T10:03:19.623Z,5.99
2018-12-10T10:05:52.826Z,6.15
2018-12-10T10:08:25.538Z,6.37
2018-12-10T10:10:58.584Z,6.55
2018-12-10T10:13:31.552Z,6.54
2018-12-10T10:16:04.475Z,6.38
2018-12-10T10:18:41.832Z,6.45
2018-12-10T10:21:21.951Z,6.41
2018-12-10T10:23:52.908Z,6.21
2018-12-10T10:26:29.076Z,6.03
2018-12-10T10:29:02.307Z,6.08
2018-12-10T10:31:33.131Z,6.03
2018-12-10T10:34:10.088Z,6.02
2018-12-10T10:36:44.558Z,6.07
2018-12-10T10:39:22.924Z,6.23
2018-12-10T10:41:59.541Z,6.21
2018-12-10T10:44:32.775Z,6.03
2018-12-10T10:47:19.123Z,5.95
2018-12-10T10:50:00.925Z,5.92
2018-12-10T10:52:37.504Z,5.85
2018-12-10T10:55:10.642Z,5.70
2018-12-10T10:57:47.613Z,5.58
2018-12-10T11:00:25.359Z,5.66
2018-12-10T11:03:03.492Z,5.85
2018-12-10T11:05:36.069Z,5.95
2018-12-10T11:08:08.566Z,5.99
2018-12-10T11:10:41.460Z,5.93
2018-12-10T11:13:14.559Z,6.15
2018-12-10T11:15:46.887Z,6.18
2018-12-10T11:18:19.904Z,5.94
2018-12-10T11:20:52.560Z,5.90
2018-12-10T11:23:25.873Z,5.83
2018-12-10T11:25:58.710Z,5.94
2018-12-10T11:28:29.764Z,6.00
2018-12-10T11:31:02.683Z,6.13
2018-12-10T11:33:35.707Z,6.20
2018-12-10T11:36:09.698Z,6.36
2018-12-10T11:43:47.055Z,5.74
2018-12-10T11:46:19.979Z,5.61
2018-12-10T11:48:56.695Z,5.48
2018-12-10T11:51:25.931Z,5.27
2018-12-10T11:54:03.875Z,5.19
2018-12-10T11:56:41.147Z,5.31
2018-12-10T11:59:12.153Z,5.34
2018-12-10T12:01:45.051Z,5.40
2018-12-10T12:04:17.939Z,5.44
2018-12-10T12:06:55.028Z,5.66
2018-12-10T12:09:32.650Z,5.79
2018-12-10T12:12:27.815Z,5.87
2018-12-10T12:15:00.325Z,6.02
2018-12-10T12:17:33.473Z,6.12
2018-12-10T12:20:11.366Z,6.19
2018-12-10T12:22:44.505Z,6.24
2018-12-10T12:25:17.776Z,6.21
2018-12-10T12:27:50.619Z,6.23
2018-12-10T12:30:23.519Z,6.37
2018-12-10T12:32:56.867Z,6.47
2018-12-10T12:35:29.350Z,6.39
2018-12-10T12:38:02.384Z,6.36
2018-12-10T12:40:35.237Z,6.35
2018-12-10T12:43:15.816Z,6.51
2018-12-10T12:45:45.095Z,6.64
2018-12-10T12:48:18.599Z,6.67
2018-12-10T12:50:51.287Z,6.86
2018-12-10T12:53:24.471Z,7.13
2018-12-10T12:56:01.306Z,7.30
2018-12-10T12:58:34.487Z,7.35
2018-12-10T13:01:07.711Z,7.44
2018-12-10T13:03:40.614Z,7.34
2018-12-10T13:06:13.008Z,7.42
2018-12-10T13:08:46.070Z,7.50
2018-12-10T13:11:17.335Z,7.33
2018-12-10T13:13:50.362Z,7.31
2018-12-10T13:16:23.407Z,7.49
2018-12-10T13:18:56.335Z,7.32
2018-12-10T13:21:33.338Z,7.34
2018-12-10T13:24:06.299Z,7.49
2018-12-10T13:26:39.305Z,7.43
2018-12-10T13:29:12.388Z,7.44
2018-12-10T13:31:45.048Z,7.45
2018-12-10T13:34:18.301Z,7.38
2018-12-10T13:36:51.059Z,7.27
2018-12-10T13:39:24.384Z,6.96
2018-12-10T13:41:57.119Z,6.81
2018-12-10T13:44:33.964Z,6.39
2018-12-10T13:47:07.280Z,6.25
2018-12-10T13:49:40.339Z,6.10
2018-12-10T13:52:13.538Z,6.05
2018-12-10T13:54:50.348Z,5.97
2018-12-10T13:57:27.418Z,5.77
2018-12-10T14:00:05.075Z,5.43
2018-12-10T14:02:38.244Z,5.09
2018-12-10T14:05:14.054Z,4.71
2018-12-10T14:07:47.955Z,3.88
2018-12-10T14:10:27.995Z,3.55
2018-12-10T14:13:47.002Z,3.44
2018-12-10T14:16:25.423Z,3.35
2018-12-10T14:19:08.049Z,3.52
2018-12-10T14:21:37.443Z,4.03
2018-12-10T14:24:06.919Z,4.12
2018-12-10T14:26:36.191Z,4.04
2018-12-10T14:29:06.581Z,4.02
2018-12-10T14:31:56.407Z,3.99
2018-12-10T14:34:29.004Z,4.48
2018-12-10T14:37:06.031Z,4.73
2018-12-10T14:39:42.725Z,4.65
2018-12-10T14:42:23.215Z,4.63
2018-12-10T14:48:16.036Z,4.47
2018-12-10T14:50:45.362Z,4.55
2018-12-10T14:53:14.698Z,4.68
2018-12-10T14:55:44.072Z,4.66
2018-12-10T14:58:17.332Z,4.65
2018-12-10T15:00:46.671Z,4.74
2018-12-10T15:03:19.815Z,4.72
2018-12-10T15:05:49.210Z,4.75
2018-12-10T15:08:22.087Z,4.71
2018-12-10T15:10:59.005Z,4.76
2018-12-10T15:13:35.580Z,4.72
2018-12-10T15:16:12.409Z,4.61
2018-12-10T15:18:45.577Z,4.55
2018-12-10T15:21:18.405Z,4.60
2018-12-10T15:23:51.363Z,4.52
2018-12-10T15:26:24.170Z,4.53
2018-12-10T15:28:58.283Z,4.48
2018-12-10T15:31:31.147Z,4.39
2018-12-10T15:34:08.734Z,4.57
2018-12-10T15:36:41.987Z,4.54
2018-12-10T15:39:15.011Z,4.64
2018-12-10T15:41:48.688Z,4.55
2018-12-10T15:44:22.205Z,4.49
2018-12-10T15:46:55.091Z,4.54
2018-12-10T15:49:31.747Z,4.39
2018-12-10T15:52:08.619Z,4.40
2018-12-10T15:54:45.670Z,4.32
2018-12-10T15:57:18.394Z,4.34
2018-12-10T15:59:55.606Z,4.39
2018-12-10T16:02:28.858Z,4.33
2018-12-10T16:05:00.476Z,4.26
2018-12-10T16:07:33.472Z,4.29
2018-12-10T16:10:10.882Z,4.16
2018-12-10T16:12:42.263Z,4.07
2018-12-10T16:15:19.139Z,4.09
2018-12-10T16:17:52.035Z,4.25
2018-12-10T16:20:25.171Z,4.15
2018-12-10T16:23:02.202Z,4.14
2018-12-10T16:25:39.051Z,4.33
2018-12-10T16:28:12.094Z,4.39
2018-12-10T16:30:49.327Z,4.33
2018-12-10T16:33:39.927Z,4.34
2018-12-10T16:36:16.766Z,4.43
2018-12-10T16:38:49.467Z,4.52
2018-12-10T16:41:22.539Z,4.65
2018-12-10T16:43:55.469Z,4.62
2018-12-10T16:46:32.403Z,4.60
2018-12-10T16:54:07.823Z,4.72
2018-12-10T16:56:41.027Z,4.74
2018-12-10T16:59:13.913Z,4.81
2018-12-10T17:01:50.885Z,4.76
2018-12-10T17:05:07.340Z,4.69
2018-12-10T17:07:44.153Z,4.58
2018-12-10T17:10:20.867Z,4.58
2018-12-10T17:12:50.528Z,4.50
2018-12-10T17:15:20.163Z,4.50
2018-12-10T17:17:57.119Z,4.52
2018-12-10T17:20:30.102Z,4.58
2018-12-10T17:23:03.140Z,4.60
2018-12-10T17:25:36.043Z,4.48
2018-12-10T17:28:14.282Z,4.68
2018-12-10T17:30:48.052Z,4.74
2018-12-10T17:33:21.668Z,4.80
2018-12-10T17:35:54.409Z,4.84
2018-12-10T17:38:37.391Z,4.72
2018-12-10T17:41:10.588Z,4.60
2018-12-10T17:43:43.751Z,4.72
2018-12-10T17:46:20.631Z,4.67
2018-12-10T17:48:53.842Z,4.65
2018-12-10T17:51:30.873Z,4.79
2018-12-10T17:54:04.244Z,4.67
2018-12-10T17:56:37.945Z,4.67
2018-12-10T17:59:16.265Z,4.66
2018-12-10T18:01:47.275Z,4.58
2018-12-10T18:04:20.387Z,4.45
2018-12-10T18:06:57.269Z,4.38
2018-12-10T18:09:30.542Z,4.27
2018-12-10T18:12:03.613Z,4.25
2018-12-10T18:14:36.654Z,4.32
2018-12-10T18:17:12.028Z,4.22
2018-12-10T18:19:44.918Z,4.23
2018-12-10T18:22:17.733Z,4.30
2018-12-10T18:24:51.094Z,4.27
2018-12-10T18:27:22.819Z,4.24
2018-12-10T18:29:59.753Z,4.14
2018-12-10T18:32:32.707Z,4.18
2018-12-10T18:35:05.942Z,4.14
2018-12-10T18:37:39.434Z,4.17
2018-12-10T18:40:14.598Z,4.19
2018-12-10T18:42:52.739Z,4.17
2018-12-10T18:45:26.841Z,4.22
2018-12-10T18:48:04.410Z,4.16
2018-12-10T18:50:37.474Z,4.12
2018-12-10T18:53:15.299Z,4.05
2018-12-10T18:55:58.267Z,4.06
2018-12-10T18:58:35.451Z,4.16
2018-12-10T19:01:05.144Z,4.22
2018-12-10T19:03:42.632Z,4.15
2018-12-10T19:06:21.068Z,4.17
2018-12-10T19:08:55.070Z,4.17
2018-12-10T19:11:32.446Z,4.22
2018-12-10T19:14:05.463Z,4.34
2018-12-10T19:16:39.495Z,4.37
2018-12-10T19:19:48.978Z,4.35
2018-12-10T19:22:25.597Z,4.27
2018-12-10T19:25:11.578Z,4.29
2018-12-10T19:27:48.433Z,4.26
2018-12-10T19:30:25.143Z,4.40
2018-12-10T19:33:01.874Z,4.33
2018-12-10T19:35:34.762Z,4.33
2018-12-10T19:38:07.909Z,4.39
2018-12-10T19:40:44.708Z,4.30
2018-12-10T19:43:17.479Z,4.24
2018-12-10T19:45:48.632Z,4.15
2018-12-10T19:48:21.671Z,4.10
2018-12-10T19:50:54.515Z,3.97
2018-12-10T19:53:27.383Z,4.08
2018-12-10T19:55:58.143Z,4.05
2018-12-10T19:58:30.909Z,4.03
2018-12-10T20:01:03.931Z,3.95
2018-12-10T20:03:38.255Z,4.09
2018-12-10T20:06:19.233Z,3.99
2018-12-10T20:08:53.263Z,4.02
2018-12-10T20:11:30.367Z,4.04
2018-12-10T20:14:03.248Z,3.96
2018-12-10T20:16:36.610Z,4.06
2018-12-10T20:19:09.359Z,3.98
2018-12-10T20:21:42.643Z,3.97
2018-12-10T20:24:19.751Z,4.03
2018-12-10T20:26:56.715Z,3.96
2018-12-10T20:29:29.687Z,3.98
2018-12-10T20:32:02.585Z,3.99
2018-12-10T20:34:35.526Z,3.97
2018-12-10T20:37:08.799Z,3.90
2018-12-10T20:39:41.753Z,3.90
2018-12-10T20:42:14.934Z,3.88
2018-12-10T20:44:47.982Z,3.89
2018-12-10T20:47:24.677Z,3.81
2018-12-10T20:49:57.698Z,3.87
2018-12-10T20:52:30.914Z,3.91
2018-12-10T20:55:03.843Z,3.95
2018-12-10T20:57:41.465Z,3.86
2018-12-10T21:00:13.654Z,3.93
2018-12-10T21:02:46.659Z,3.97
2018-12-10T21:05:20.560Z,4.04
2018-12-10T21:07:53.664Z,4.13
2018-12-10T21:10:26.630Z,4.23
2018-12-10T21:12:59.901Z,4.24
2018-12-10T21:15:33.528Z,4.12
2018-12-10T21:18:05.047Z,4.11
2018-12-10T21:20:38.119Z,3.91
2018-12-10T21:23:11.103Z,3.95
2018-12-10T21:25:44.071Z,3.96
2018-12-10T21:28:16.917Z,4.00
2018-12-10T21:30:50.053Z,3.97
2018-12-10T21:33:23.172Z,4.06
2018-12-10T21:35:56.274Z,4.01
2018-12-10T21:38:29.379Z,4.00
2018-12-10T21:41:02.507Z,4.06
2018-12-10T21:43:39.334Z,4.14
2018-12-10T21:46:12.333Z,4.07
2018-12-10T21:48:45.342Z,4.11
2018-12-10T21:51:18.141Z,4.21
2018-12-10T21:53:55.212Z,4.30
2018-12-10T21:56:27.947Z,4.38
2018-12-10T21:59:04.959Z,4.39
2018-12-10T22:01:37.853Z,4.40
2018-12-10T22:04:10.733Z,4.31
2018-12-10T22:06:47.679Z,4.25
2018-12-10T22:09:20.651Z,4.32
2018-12-10T22:11:57.839Z,4.31
2018-12-10T22:14:30.684Z,4.14
2018-12-10T22:17:03.533Z,4.02
2018-12-10T22:19:40.460Z,3.96
2018-12-10T22:22:13.311Z,4.05
2018-12-10T22:24:50.130Z,4.05
2018-12-10T22:27:27.271Z,3.93
2018-12-10T22:30:00.034Z,3.91
2018-12-10T22:32:32.984Z,3.83
2018-12-10T22:35:19.160Z,3.84
2018-12-10T22:37:55.678Z,3.93
2018-12-10T22:40:28.311Z,3.99
2018-12-10T22:43:01.233Z,4.05
2018-12-10T22:45:30.376Z,4.06
2018-12-10T22:48:08.365Z,3.99
2018-12-10T22:51:11.738Z,3.91
2018-12-10T22:53:58.288Z,3.89
2018-12-10T22:56:49.670Z,3.83
2018-12-10T22:59:39.367Z,3.74
2018-12-10T23:05:39.241Z,3.64
2018-12-10T23:08:12.046Z,3.54
2018-12-10T23:10:45.182Z,3.57
2018-12-10T23:13:21.800Z,3.67
2018-12-10T23:15:51.003Z,3.76
2018-12-10T23:18:20.111Z,3.79
2018-12-10T23:20:57.126Z,3.79
2018-12-10T23:23:33.966Z,3.74
2018-12-10T23:26:07.012Z,3.85
2018-12-10T23:28:40.099Z,3.80
2018-12-10T23:31:12.896Z,3.86
2018-12-10T23:33:43.855Z,3.77
2018-12-10T23:36:16.771Z,3.68
2018-12-10T23:38:47.572Z,3.67
2018-12-10T23:41:24.238Z,3.79
2018-12-10T23:44:01.039Z,3.70
2018-12-10T23:46:38.325Z,3.63
2018-12-10T23:49:11.237Z,3.71
2018-12-10T23:51:41.798Z,3.64
2018-12-10T23:54:14.786Z,3.52
2018-12-10T23:56:47.865Z,3.47
2018-12-10T23:59:20.491Z,3.50
